Murphy, Missouri
Current Conditions -  °F | °C
As of 12:54 PM on Thursday 18 Dec 2014 (Local Time) from KSUS Reporting Station
Light Snow Light Snow  
Wind Chill: 27°   Ceiling: 800
Heat Index: 32°   Visibility: 2.5mi
Dew Point: 28°   Wind: 5mph
Humidity: 85%   Direction: 70°ENE
Pressure: 30.24"   Gusts: NA
Location:  38.5035°N, 90.4616°W
Report Text: KSUS 181854Z 07004KT 2 1/2SM -SN BR OVC008 00/M02 A3024 RMK AO2 SNE02B50 SLPNO P0000 T00001022
Loading
Personal Weather Stations






























Interactive Weather Map New forecast layout! Learn more

10-Day Weather Forecast

Advertisements
Track Severe Weather on mobile